GLO8001 SBMG-SBCT
Flight info
| Callsign | GLO8001 |
|---|---|
| Flight time | 0h 35m |
| Altitude | 25000 |
| Route | UMLEX UZ176 PAPIP |
| Aircraft | B738/M-V/N |
Departure
| Time | 2026-05-03 20:15 |
|---|---|
| Airport | Regional de Maringá - Sílvio Name Júnior Airport (SBMG) |
Arrival
| Time | 2026-05-03 20:50 |
|---|---|
| Airport | Curitiba-Afonso Pena International Airport (SBCT) |
| Time | Latitude | Longitude | Altitude | Speed | Heading |
|---|---|---|---|---|---|
| 2026-05-03 20:15 | -23.47211 | -51.99614 | 2632 ft | 187 kts | 77° |
| 2026-05-03 20:15 | -23.47313 | -51.98196 | 3483 ft | 189 kts | 118° |
| 2026-05-03 20:15 | -23.48263 | -51.97184 | 4207 ft | 199 kts | 142° |
| 2026-05-03 20:15 | -23.49434 | -51.96327 | 4816 ft | 208 kts | 143° |
| 2026-05-03 20:16 | -23.50682 | -51.95362 | 5039 ft | 232 kts | 141° |
| 2026-05-03 20:16 | -23.52017 | -51.94227 | 5213 ft | 255 kts | 139° |
| 2026-05-03 20:16 | -23.53415 | -51.92934 | 5464 ft | 277 kts | 137° |
| 2026-05-03 20:16 | -23.54860 | -51.91503 | 6117 ft | 283 kts | 136° |
| 2026-05-03 20:17 | -23.56294 | -51.90009 | 6836 ft | 287 kts | 135° |
| 2026-05-03 20:17 | -23.57721 | -51.88467 | 7566 ft | 289 kts | 134° |
| 2026-05-03 20:17 | -23.59142 | -51.86894 | 8295 ft | 293 kts | 134° |
| 2026-05-03 20:17 | -23.60563 | -51.85294 | 9085 ft | 294 kts | 134° |
| 2026-05-03 20:18 | -23.61986 | -51.83677 | 9877 ft | 297 kts | 134° |
| 2026-05-03 20:18 | -23.63424 | -51.82032 | 10448 ft | 305 kts | 134° |
| 2026-05-03 20:18 | -23.64951 | -51.80283 | 10616 ft | 330 kts | 135° |
| 2026-05-03 20:18 | -23.66577 | -51.78411 | 10860 ft | 348 kts | 134° |
| 2026-05-03 20:19 | -23.68263 | -51.76466 | 11378 ft | 356 kts | 134° |
| 2026-05-03 20:19 | -23.69973 | -51.74491 | 12026 ft | 360 kts | 135° |
| 2026-05-03 20:19 | -23.71702 | -51.72495 | 12652 ft | 364 kts | 135° |
| 2026-05-03 20:19 | -23.73459 | -51.70467 | 13250 ft | 370 kts | 135° |
| 2026-05-03 20:20 | -23.75242 | -51.68405 | 13799 ft | 376 kts | 135° |
| 2026-05-03 20:20 | -23.77037 | -51.66313 | 14350 ft | 380 kts | 135° |
| 2026-05-03 20:20 | -23.78845 | -51.64197 | 14918 ft | 382 kts | 135° |
| 2026-05-03 20:20 | -23.80644 | -51.62091 | 15451 ft | 386 kts | 135° |
| 2026-05-03 20:21 | -23.82482 | -51.59936 | 16013 ft | 389 kts | 135° |
| 2026-05-03 20:21 | -23.84337 | -51.57760 | 16552 ft | 393 kts | 136° |
| 2026-05-03 20:21 | -23.86205 | -51.55569 | 17082 ft | 396 kts | 136° |
| 2026-05-03 20:21 | -23.88096 | -51.53350 | 17608 ft | 400 kts | 136° |
| 2026-05-03 20:22 | -23.90000 | -51.51116 | 18145 ft | 403 kts | 136° |
| 2026-05-03 20:22 | -23.91914 | -51.48869 | 18612 ft | 406 kts | 136° |
| 2026-05-03 20:22 | -23.93852 | -51.46594 | 19024 ft | 410 kts | 136° |
| 2026-05-03 20:22 | -23.95805 | -51.44301 | 19468 ft | 414 kts | 137° |
| 2026-05-03 20:23 | -23.97772 | -51.41989 | 19912 ft | 417 kts | 137° |
| 2026-05-03 20:23 | -23.99753 | -51.39658 | 20331 ft | 421 kts | 137° |
| 2026-05-03 20:23 | -24.01755 | -51.37302 | 20758 ft | 424 kts | 137° |
| 2026-05-03 20:23 | -24.03758 | -51.34940 | 21369 ft | 422 kts | 138° |
| 2026-05-03 20:24 | -24.05756 | -51.32585 | 22002 ft | 421 kts | 138° |
| 2026-05-03 20:24 | -24.07749 | -51.30242 | 22535 ft | 421 kts | 139° |
| 2026-05-03 20:24 | -24.09747 | -51.27887 | 23029 ft | 423 kts | 139° |
| 2026-05-03 20:24 | -24.11755 | -51.25516 | 23558 ft | 425 kts | 139° |
| 2026-05-03 20:25 | -24.13765 | -51.23140 | 24034 ft | 425 kts | 139° |
| 2026-05-03 20:25 | -24.15771 | -51.20770 | 24521 ft | 424 kts | 139° |
| 2026-05-03 20:25 | -24.17747 | -51.18434 | 24989 ft | 424 kts | 139° |
| 2026-05-03 20:25 | -24.19759 | -51.16057 | 25072 ft | 425 kts | 140° |
| 2026-05-03 20:26 | -24.21767 | -51.13687 | 25098 ft | 423 kts | 139° |
| 2026-05-03 20:26 | -24.23767 | -51.11313 | 25105 ft | 426 kts | 139° |
| 2026-05-03 20:26 | -24.25792 | -51.08915 | 25115 ft | 432 kts | 139° |
| 2026-05-03 20:26 | -24.27846 | -51.06484 | 25125 ft | 437 kts | 139° |
| 2026-05-03 20:27 | -24.29927 | -51.04018 | 25124 ft | 444 kts | 139° |
| 2026-05-03 20:27 | -24.32040 | -51.01518 | 25127 ft | 449 kts | 139° |
| 2026-05-03 20:27 | -24.34172 | -50.98996 | 25126 ft | 454 kts | 139° |
| 2026-05-03 20:27 | -24.36330 | -50.96439 | 25122 ft | 459 kts | 139° |
| 2026-05-03 20:28 | -24.38506 | -50.93856 | 25130 ft | 463 kts | 139° |
| 2026-05-03 20:28 | -24.40703 | -50.91249 | 25125 ft | 468 kts | 139° |
| 2026-05-03 20:28 | -24.42920 | -50.88614 | 25119 ft | 472 kts | 139° |
| 2026-05-03 20:28 | -24.45151 | -50.85960 | 25121 ft | 475 kts | 139° |
| 2026-05-03 20:29 | -24.47398 | -50.83287 | 25146 ft | 478 kts | 139° |
| 2026-05-03 20:29 | -24.49633 | -50.80621 | 25117 ft | 469 kts | 139° |
| 2026-05-03 20:29 | -24.51816 | -50.78013 | 25116 ft | 461 kts | 139° |
| 2026-05-03 20:29 | -24.53982 | -50.75432 | 25129 ft | 459 kts | 139° |
| 2026-05-03 20:30 | -24.56133 | -50.72872 | 25109 ft | 449 kts | 139° |
| 2026-05-03 20:30 | -24.58210 | -50.70388 | 25106 ft | 435 kts | 140° |
| 2026-05-03 20:30 | -24.60116 | -50.67842 | 25109 ft | 432 kts | 126° |
| 2026-05-03 20:30 | -24.61449 | -50.64860 | 25156 ft | 436 kts | 120° |
| 2026-05-03 20:31 | -24.62703 | -50.61855 | 25132 ft | 439 kts | 120° |
| 2026-05-03 20:31 | -24.63979 | -50.58809 | 25146 ft | 438 kts | 120° |
| 2026-05-03 20:31 | -24.65258 | -50.55776 | 24843 ft | 436 kts | 120° |
| 2026-05-03 20:31 | -24.66538 | -50.52765 | 24540 ft | 434 kts | 121° |
| 2026-05-03 20:32 | -24.67819 | -50.49771 | 24187 ft | 432 kts | 121° |
| 2026-05-03 20:32 | -24.69103 | -50.46783 | 23809 ft | 431 kts | 121° |
| 2026-05-03 20:32 | -24.70386 | -50.43804 | 23364 ft | 430 kts | 121° |
| 2026-05-03 20:32 | -24.71663 | -50.40836 | 22946 ft | 428 kts | 120° |
| 2026-05-03 20:33 | -24.72932 | -50.37882 | 22557 ft | 425 kts | 120° |
| 2026-05-03 20:33 | -24.74191 | -50.34951 | 22170 ft | 423 kts | 120° |
| 2026-05-03 20:33 | -24.75445 | -50.32030 | 21795 ft | 420 kts | 120° |
| 2026-05-03 20:33 | -24.76690 | -50.29127 | 21426 ft | 418 kts | 120° |
| 2026-05-03 20:34 | -24.77922 | -50.26252 | 21078 ft | 415 kts | 120° |
| 2026-05-03 20:34 | -24.79151 | -50.23382 | 20721 ft | 412 kts | 120° |
| 2026-05-03 20:34 | -24.80370 | -50.20535 | 20366 ft | 410 kts | 120° |
| 2026-05-03 20:34 | -24.81564 | -50.17744 | 20015 ft | 407 kts | 119° |
| 2026-05-03 20:35 | -24.82767 | -50.14929 | 19671 ft | 405 kts | 119° |
| 2026-05-03 20:35 | -24.83967 | -50.12120 | 19326 ft | 402 kts | 119° |
| 2026-05-03 20:35 | -24.85151 | -50.09347 | 18976 ft | 399 kts | 119° |
| 2026-05-03 20:35 | -24.86328 | -50.06591 | 18642 ft | 396 kts | 119° |
| 2026-05-03 20:36 | -24.87496 | -50.03850 | 18296 ft | 393 kts | 118° |
| 2026-05-03 20:36 | -24.88653 | -50.01136 | 17905 ft | 391 kts | 118° |
| 2026-05-03 20:36 | -24.89804 | -49.98434 | 17526 ft | 388 kts | 118° |
| 2026-05-03 20:36 | -24.90947 | -49.95748 | 17154 ft | 386 kts | 118° |
| 2026-05-03 20:37 | -24.92081 | -49.93082 | 16781 ft | 383 kts | 118° |
| 2026-05-03 20:37 | -24.93195 | -49.90462 | 16417 ft | 381 kts | 118° |
| 2026-05-03 20:37 | -24.94313 | -49.87832 | 16059 ft | 378 kts | 118° |
| 2026-05-03 20:37 | -24.95424 | -49.85214 | 15758 ft | 374 kts | 118° |
| 2026-05-03 20:38 | -24.96519 | -49.82634 | 15526 ft | 369 kts | 117° |
| 2026-05-03 20:38 | -24.97597 | -49.80090 | 15277 ft | 363 kts | 117° |
| 2026-05-03 20:38 | -24.98659 | -49.77584 | 15047 ft | 358 kts | 117° |
| 2026-05-03 20:38 | -24.99706 | -49.75114 | 14817 ft | 354 kts | 117° |
| 2026-05-03 20:39 | -25.00741 | -49.72671 | 14582 ft | 349 kts | 117° |
| 2026-05-03 20:39 | -25.01763 | -49.70254 | 14350 ft | 345 kts | 117° |
| 2026-05-03 20:39 | -25.02772 | -49.67871 | 14118 ft | 341 kts | 117° |
| 2026-05-03 20:39 | -25.03778 | -49.65521 | 13864 ft | 337 kts | 120° |
| 2026-05-03 20:40 | -25.05201 | -49.63536 | 13588 ft | 327 kts | 143° |
| 2026-05-03 20:40 | -25.06964 | -49.61996 | 13354 ft | 320 kts | 145° |
| 2026-05-03 20:40 | -25.08703 | -49.60526 | 13074 ft | 310 kts | 145° |
| 2026-05-03 20:40 | -25.10400 | -49.59095 | 12697 ft | 305 kts | 145° |
| 2026-05-03 20:41 | -25.12065 | -49.57686 | 12189 ft | 305 kts | 144° |
| 2026-05-03 20:41 | -25.13767 | -49.56236 | 11710 ft | 305 kts | 145° |
| 2026-05-03 20:41 | -25.15422 | -49.54816 | 11274 ft | 304 kts | 144° |
| 2026-05-03 20:41 | -25.17077 | -49.53390 | 10929 ft | 299 kts | 144° |
| 2026-05-03 20:42 | -25.18707 | -49.51985 | 10565 ft | 295 kts | 144° |
| 2026-05-03 20:42 | -25.20313 | -49.50601 | 10200 ft | 290 kts | 144° |
| 2026-05-03 20:42 | -25.21892 | -49.49240 | 9845 ft | 286 kts | 144° |
| 2026-05-03 20:42 | -25.23452 | -49.47891 | 9464 ft | 283 kts | 144° |
| 2026-05-03 20:43 | -25.24996 | -49.46559 | 9066 ft | 280 kts | 144° |
| 2026-05-03 20:43 | -25.26523 | -49.45241 | 8697 ft | 277 kts | 144° |
| 2026-05-03 20:43 | -25.28034 | -49.43937 | 8333 ft | 275 kts | 144° |
| 2026-05-03 20:43 | -25.29539 | -49.42637 | 7971 ft | 273 kts | 144° |
| 2026-05-03 20:44 | -25.31043 | -49.41337 | 7628 ft | 276 kts | 144° |
| 2026-05-03 20:44 | -25.32046 | -49.40471 | 7513 ft | 275 kts | 144° |
| 2026-05-03 20:44 | -25.33525 | -49.39185 | 7481 ft | 265 kts | 142° |
| 2026-05-03 20:44 | -25.34847 | -49.37805 | 7396 ft | 259 kts | 136° |
| 2026-05-03 20:45 | -25.36509 | -49.35941 | 7188 ft | 251 kts | 136° |
| 2026-05-03 20:45 | -25.37726 | -49.34607 | 6980 ft | 244 kts | 135° |
| 2026-05-03 20:45 | -25.38906 | -49.33285 | 6705 ft | 239 kts | 135° |
| 2026-05-03 20:45 | -25.39680 | -49.32411 | 6498 ft | 231 kts | 135° |
| 2026-05-03 20:46 | -25.40775 | -49.31176 | 6190 ft | 219 kts | 134° |
| 2026-05-03 20:46 | -25.41797 | -49.30024 | 5897 ft | 203 kts | 131° |
| 2026-05-03 20:46 | -25.42743 | -49.28959 | 5636 ft | 186 kts | 130° |
| 2026-05-03 20:46 | -25.43595 | -49.28000 | 5419 ft | 169 kts | 131° |
| 2026-05-03 20:47 | -25.44368 | -49.27130 | 5214 ft | 151 kts | 129° |
| 2026-05-03 20:47 | -25.45081 | -49.26325 | 5026 ft | 145 kts | 128° |
| 2026-05-03 20:47 | -25.45800 | -49.25512 | 4848 ft | 150 kts | 129° |
| 2026-05-03 20:47 | -25.46529 | -49.24689 | 4639 ft | 149 kts | 129° |
| 2026-05-03 20:48 | -25.47251 | -49.23877 | 4432 ft | 149 kts | 130° |
| 2026-05-03 20:48 | -25.47978 | -49.23056 | 4237 ft | 149 kts | 131° |
| 2026-05-03 20:48 | -25.48698 | -49.22246 | 4039 ft | 145 kts | 130° |
| 2026-05-03 20:48 | -25.49396 | -49.21460 | 3837 ft | 142 kts | 130° |
| 2026-05-03 20:49 | -25.50086 | -49.20682 | 3648 ft | 142 kts | 132° |
| 2026-05-03 20:49 | -25.50791 | -49.19887 | 3414 ft | 144 kts | 132° |
| 2026-05-03 20:49 | -25.51472 | -49.19123 | 3206 ft | 135 kts | 133° |
| 2026-05-03 20:49 | -25.52122 | -49.18390 | 3029 ft | 131 kts | 133° |
| 2026-05-03 20:50 | -25.52690 | -49.17747 | 2987 ft | 87 kts | 135° |
| 2026-05-03 20:50 | -25.53016 | -49.17380 | 2988 ft | 29 kts | 134° |
| 2026-05-03 20:50 | -25.53095 | -49.17296 | 2987 ft | 9 kts | 140° |
| 2026-05-03 20:50 | -25.53155 | -49.17295 | 2987 ft | 9 kts | 216° |
| 2026-05-03 20:51 | -25.53205 | -49.17342 | 2986 ft | 9 kts | 216° |
| 2026-05-03 20:51 | -25.53263 | -49.17334 | 2986 ft | 9 kts | 143° |
| 2026-05-03 20:51 | -25.53308 | -49.17287 | 2985 ft | 9 kts | 134° |
| 2026-05-03 20:51 | -25.53355 | -49.17248 | 2985 ft | 9 kts | 173° |
| 2026-05-03 20:52 | -25.53397 | -49.17288 | 2985 ft | 8 kts | 249° |
| 2026-05-03 20:52 | -25.53402 | -49.17342 | 2985 ft | 6 kts | 261° |
| 2026-05-03 20:52 | -25.53427 | -49.17369 | 2985 ft | 0 kts | 209° |
| 2026-05-03 20:52 | -25.53429 | -49.17370 | 2985 ft | 0 kts | 209° |